• Join FlightAware (Why Join?)
  • Login
  • US Flag 
05:59AM EDT


 

Airport Tracker/Info


-or-


 

Live Flight TrackerFlight Track Log ✈ UPS2988 ✈ 27-Jun-2013 ✈ KSDF - KBFI

Flight Track Log - Related Links

Times and Time Zones

All times are in EDT time to prevent confusion due to time zone crossing. See the UPS2988 flight status page for this flight to view local times or setup timezone preferences in your user account.

Time Position Orientation Groundspeed Altitude Reporting Facility
EDT Latitude Longitude Course Direction KTS MPH feet Rate Location/Type
04:15PM 38.2772 -85.8131 261° West 226 260 4,900  Level Kansas City Center
04:16PM 38.2672 -85.9033 262° West 257 296 7,500 2,400 Climbing Kansas City Center
04:17PM 38.2025 -85.9700 219° Southwest 279 321 9,900 1,800 Climbing Kansas City Center
04:18PM 38.1386 -86.0425 222° Southwest 293 337 11,300 1,380 Climbing Kansas City Center
04:19PM 38.0274 -86.5687 265° West  Level FlightAware Approximate
04:19PM 38.0739 -86.1428 231° Southwest 343 395 12,800  Level Kansas City Center
04:20PM 38.0161 -86.7215 261° West  Level FlightAware Approximate
04:20PM 38.0694 -86.2828 268° West 379 436 15,700  Level Kansas City Center
04:21PM 38.0775 -86.4267 274° West 399 459 18,600 2,640 Climbing Kansas City Center
04:22PM 38.0861 -86.6081 274° West 420 483 21,200 2,100 Climbing Kansas City Center
04:23PM 38.0942 -86.7653 274° West 436 502 23,000 1,440 Climbing Kansas City Center
04:24PM 38.1014 -86.9253 273° West 444 511 24,200 1,500 Climbing Kansas City Center
04:25PM 38.1114 -87.0900 274° West 453 521 26,100 1,920 Climbing Kansas City Center
04:26PM 38.1200 -87.2600 274° West 467 537 28,200 2,160 Climbing Kansas City Center
04:27PM 38.1286 -87.4269 274° West 470 541 30,600 2,160 Climbing Kansas City Center
04:28PM 38.1367 -87.5889 274° West 464 534 32,700 1,620 Climbing Kansas City Center
04:29PM 38.1447 -87.7464 274° West 452 520 34,000 600 Climbing Kansas City Center
04:30PM 38.1519 -87.8994 273° West 438 504 34,000  Level Kansas City Center
04:31PM 38.1594 -88.0533 274° West 434 499 34,000  Level Kansas City Center
04:32PM 38.1678 -88.2414 273° West 440 506 34,000  Level Kansas City Center
04:33PM 38.1744 -88.4014 273° West 448 516 34,000  Level Kansas City Center
04:34PM 38.1828 -88.5611 274° West 451 519 34,000  Level Kansas City Center
04:35PM 38.1892 -88.7275 273° West 457 526 34,000  Level Kansas City Center
04:36PM 38.1950 -88.8881 273° West 456 525 34,000  Level Kansas City Center
04:37PM 38.2008 -89.0722 272° West 457 526 34,000  Level Kansas City Center
04:38PM 38.2047 -89.2325 272° West 456 525 34,000  Level Kansas City Center
04:39PM 38.2108 -89.3906 273° West 449 517 34,000  Level Kansas City Center
04:41PM 38.2169 -89.5592 273° West 445 512 34,000  Level Kansas City Center
04:42PM 38.2211 -89.7131 272° West 445 512 34,000  Level Kansas City Center
04:43PM 38.2264 -89.8703 272° West 445 512 34,000  Level Kansas City Center
04:44PM 38.2311 -90.0294 272° West 447 514 34,000  Level Kansas City Center
04:45PM 38.2344 -90.1847 272° West 441 507 34,000  Level Kansas City Center
04:46PM 38.2389 -90.3414 272° West 441 507 34,000  Level Kansas City Center
04:47PM 38.2422 -90.4992 272° West 441 507 34,000  Level Kansas City Center
04:48PM 38.2461 -90.6883 272° West 443 510 34,000  Level Kansas City Center
04:49PM 38.2500 -90.8458 272° West 443 510 34,000  Level Kansas City Center
04:50PM 38.2533 -91.0033 272° West 444 511 34,000  Level Kansas City Center
04:51PM 38.2553 -91.1589 271° West 441 507 34,000  Level Kansas City Center
04:52PM 38.2586 -91.3167 272° West 444 511 34,000  Level Kansas City Center
04:53PM 38.2628 -91.4956 272° West 439 505 34,000  Level Kansas City Center
04:54PM 38.2658 -91.6500 271° West 438 504 34,000  Level Kansas City Center
04:55PM 38.2681 -91.8056 271° West 438 504 34,000  Level Kansas City Center
04:56PM 38.2703 -91.9594 271° West 436 502 34,000  Level Kansas City Center
04:57PM 38.2728 -92.1131 271° West 439 505 34,000  Level Kansas City Center
04:58PM 38.2758 -92.2994 271° West 441 507 34,000  Level Kansas City Center
04:59PM 38.2756 -92.4567 270° West 446 513 34,000  Level Kansas City Center
05:00PM 38.2767 -92.6139 271° West 449 517 34,000  Level Kansas City Center
05:01PM 38.2769 -92.7703 270° West 445 512 34,000  Level Kansas City Center
05:02PM 38.2778 -92.9275 270° West 445 512 34,000  Level Kansas City Center
05:03PM 38.2786 -93.1194 270° West 450 518 34,000  Level Kansas City Center
05:04PM 38.2783 -93.2819 270° West 457 526 34,000  Level Kansas City Center
05:10PM 38.3387 -94.2486 270° West 471 542 34,000  Level FlightAware ADS-B
05:11PM 38.3577 -94.3679 282° West 470 541 34,000  Level FlightAware ADS-B
05:12PM 38.3778 -94.4942 282° West 470 541 34,000  Level FlightAware ADS-B
05:12PM 38.3934 -94.5760 284° West 468 539 34,000  Level FlightAware ADS-B
05:13PM 38.4093 -94.6585 284° West 466 536 34,000  Level FlightAware ADS-B
05:13PM 38.4252 -94.7425 284° West 465 535 34,000  Level FlightAware ADS-B
05:14PM 38.4478 -94.8638 283° West 463 533 34,000  Level FlightAware ADS-B
05:18PM 38.5826 -95.5574 284° West 459 528 34,000 180 Level FlightAware ADS-B
05:19PM 38.6437 -95.6780 303° West 455 524 35,200 1,380 Climbing FlightAware ADS-B
05:20PM 38.6788 -95.7460 303° West 444 511 36,000 780 Climbing FlightAware ADS-B
05:20PM 38.7126 -95.8112 304° West 435 501 36,000  Level FlightAware ADS-B
05:21PM 38.7461 -95.8746 304° West 426 490 36,000  Level FlightAware ADS-B
05:21PM 38.7796 -95.9370 305° West 428 493 36,000  Level FlightAware ADS-B
05:22PM 38.8177 -96.0073 305° West 435 501 36,000  Level FlightAware ADS-B
05:22PM 38.8526 -96.0711 305° West 441 507 36,000  Level FlightAware ADS-B
05:23PM 38.8901 -96.1392 305° West 447 514 36,000  Level FlightAware ADS-B
05:23PM 38.9288 -96.2085 306° West 452 520 36,000  Level FlightAware ADS-B
05:24PM 38.9670 -96.2775 305° West 454 522 36,000  Level FlightAware ADS-B
05:25PM 39.0157 -96.3663 305° West 455 524 36,000  Level FlightAware ADS-B
05:25PM 39.0516 -96.4333 305° West 456 525 36,000  Level FlightAware ADS-B
05:26PM 39.0877 -96.5023 304° West 458 527 36,000  Level FlightAware ADS-B
05:26PM 39.1231 -96.5713 303° West 457 526 36,000  Level FlightAware ADS-B
05:27PM 39.1564 -96.6356 304° West 457 526 36,000  Level FlightAware ADS-B
05:27PM 39.1926 -96.7029 305° West 452 520 36,000  Level FlightAware ADS-B
05:28PM 39.2285 -96.7691 305° West 445 512 36,000  Level FlightAware ADS-B
05:28PM 39.2658 -96.8345 306° West 437 503 36,000  Level FlightAware ADS-B
05:29PM 39.3009 -96.8977 306° West 433 498 36,000  Level FlightAware ADS-B
05:29PM 39.3358 -96.9610 305° West 432 497 36,000  Level FlightAware ADS-B
05:30PM 39.3707 -97.0251 305° West 432 497 36,000  Level FlightAware ADS-B
05:30PM 39.4055 -97.0885 305° West 433 498 36,000  Level FlightAware ADS-B
05:31PM 39.4405 -97.1522 305° West 436 502 36,000  Level FlightAware ADS-B
05:31PM 39.4757 -97.2162 305° West 441 507 36,000  Level FlightAware ADS-B
05:32PM 39.5116 -97.2808 306° West 444 511 36,000  Level FlightAware ADS-B
05:32PM 39.5465 -97.3429 306° West 446 513 36,000  Level FlightAware ADS-B
05:32PM 39.5538 -97.3573 303° West 448 516 36,000  Level FlightAware ADS-B
05:32PM 39.5656 -97.3854 299° West 448 516 36,000  Level FlightAware ADS-B
05:33PM 39.5773 -97.4205 293° West 450 518 36,000  Level FlightAware ADS-B
05:33PM 39.5859 -97.4547 288° West 453 521 36,000  Level FlightAware ADS-B
05:34PM 39.5978 -97.5120 285° West 454 522 36,000  Level FlightAware ADS-B
05:34PM 39.6264 -97.6490 285° West 457 526 36,000  Level FlightAware ADS-B
05:35PM 39.6428 -97.7301 285° West 460 529 36,000  Level FlightAware ADS-B
05:35PM 39.6592 -97.8121 285° West 464 534 36,000  Level FlightAware ADS-B
05:36PM 39.6756 -97.8933 285° West 467 537 36,000  Level FlightAware ADS-B
05:36PM 39.6922 -97.9772 284° West 468 539 36,000  Level FlightAware ADS-B
05:37PM 39.7094 -98.0634 285° West 468 539 36,000  Level FlightAware ADS-B
05:37PM 39.7297 -98.1611 285° West 467 537 36,000  Level Kansas City Center
05:38PM 39.7481 -98.2594 284° West 466 536 36,000  Level Minneapolis Center
05:39PM 39.7803 -98.4228 284° West 464 534 36,000  Level Minneapolis Center
05:40PM 39.8183 -98.6178 284° West 463 533 36,000  Level Minneapolis Center
05:41PM 39.8494 -98.7803 284° West 461 531 36,000  Level Minneapolis Center
05:42PM 39.8806 -98.9425 284° West 461 531 36,000  Level Minneapolis Center
05:43PM 39.9114 -99.1044 284° West 458 527 36,000  Level Minneapolis Center
05:44PM 39.9417 -99.2667 284° West 460 529 36,000  Level Minneapolis Center
05:45PM 39.9769 -99.4575 284° West 457 526 36,000  Level Denver Center
05:46PM 40.0067 -99.6161 284° West 451 519 36,000  Level Denver Center
05:47PM 40.0353 -99.7786 283° West 458 527 36,000  Level Denver Center
05:48PM 40.0669 -99.9467 284° West 457 526 36,000  Level Denver Center
05:50PM 40.1000 -100.1297 283° West 462 532 36,000  Level Denver Center
05:55PM 40.2571 -101.0170 283° West 459 528 36,000  Level FlightAware ADS-B
05:55PM 40.2713 -101.0990 283° West 458 527 36,000  Level FlightAware ADS-B
05:56PM 40.2853 -101.1810 283° West 458 527 36,000  Level FlightAware ADS-B
05:56PM 40.2992 -101.2620 283° West 457 526 36,000  Level FlightAware ADS-B
05:57PM 40.3134 -101.3450 283° West 457 526 36,000  Level FlightAware ADS-B
05:57PM 40.3275 -101.4290 282° West 458 527 36,000  Level FlightAware ADS-B
05:58PM 40.3411 -101.5100 282° West 458 527 36,000  Level FlightAware ADS-B
05:58PM 40.3547 -101.5920 282° West 458 527 36,000  Level FlightAware ADS-B
05:59PM 40.3685 -101.6750 282° West 459 528 36,000  Level FlightAware ADS-B
05:59PM 40.3823 -101.7570 282° West 458 527 36,000  Level FlightAware ADS-B
06:00PM 40.3958 -101.8400 282° West 458 527 36,000  Level FlightAware ADS-B
06:00PM 40.4093 -101.9210 282° West 457 526 36,000  Level FlightAware ADS-B
06:01PM 40.4227 -102.0020 282° West 456 525 36,000  Level FlightAware ADS-B
06:02PM 40.4363 -102.0870 282° West 456 525 36,000  Level FlightAware ADS-B
06:02PM 40.4495 -102.1690 282° West 456 525 36,000  Level FlightAware ADS-B
06:03PM 40.4627 -102.2510 282° West 458 527 36,000  Level FlightAware ADS-B
06:03PM 40.4758 -102.3320 282° West 458 527 36,000  Level FlightAware ADS-B
06:04PM 40.4890 -102.4150 282° West 458 527 36,000  Level FlightAware ADS-B
06:04PM 40.5023 -102.4980 282° West 457 526 36,000  Level FlightAware ADS-B
06:05PM 40.5153 -102.5810 282° West 457 526 36,000  Level FlightAware ADS-B
06:05PM 40.5294 -102.6700 282° West 456 525 36,000  Level FlightAware ADS-B
06:06PM 40.5431 -102.7580 282° West 457 526 36,000  Level FlightAware ADS-B
06:06PM 40.5558 -102.8400 282° West 456 525 36,000  Level FlightAware ADS-B
06:07PM 40.5688 -102.9240 282° West 458 527 36,000  Level FlightAware ADS-B
06:07PM 40.5814 -103.0060 281° West 457 526 36,000  Level FlightAware ADS-B
06:08PM 40.5940 -103.0880 281° West 457 526 36,000  Level FlightAware ADS-B
06:08PM 40.6065 -103.1700 281° West 459 528 36,000  Level FlightAware ADS-B
06:09PM 40.6194 -103.2540 281° West 458 527 36,000  Level FlightAware ADS-B
06:09PM 40.6319 -103.3370 281° West 456 525 36,000  Level FlightAware ADS-B
06:10PM 40.6443 -103.4190 281° West 457 526 36,000  Level FlightAware ADS-B
06:10PM 40.6566 -103.5020 281° West 457 526 36,000  Level FlightAware ADS-B
06:11PM 40.6688 -103.5850 281° West 456 525 36,000  Level FlightAware ADS-B
06:11PM 40.6810 -103.6670 281° West 457 526 36,000  Level FlightAware ADS-B
06:12PM 40.6933 -103.7500 281° West 458 527 36,000  Level FlightAware ADS-B
06:12PM 40.7055 -103.8330 281° West 459 528 36,000  Level FlightAware ADS-B
06:13PM 40.7176 -103.9170 281° West 458 527 36,000  Level FlightAware ADS-B
06:13PM 40.7295 -103.9990 281° West 456 525 36,000  Level FlightAware ADS-B
06:14PM 40.7424 -104.0880 281° West 455 524 36,000  Level FlightAware ADS-B
06:14PM 40.7542 -104.1710 281° West 454 522 36,000  Level FlightAware ADS-B
06:15PM 40.7660 -104.2530 281° West 455 524 36,000  Level FlightAware ADS-B
06:15PM 40.7779 -104.3370 281° West 455 524 36,000  Level FlightAware ADS-B
06:16PM 40.7893 -104.4190 280° West 455 524 36,000  Level FlightAware ADS-B
06:16PM 40.8008 -104.5010 281° West 455 524 36,000  Level FlightAware ADS-B
06:17PM 40.8124 -104.5840 280° West 456 525 36,000  Level FlightAware ADS-B
06:17PM 40.8216 -104.6500 280° West 457 526 36,000  Level FlightAware ADS-B
06:17PM 40.8280 -104.6840 284° West 457 526 36,000  Level FlightAware ADS-B
06:18PM 40.8357 -104.7140 289° West 456 525 36,000  Level FlightAware ADS-B
06:18PM 40.8482 -104.7530 293° West 455 524 36,000  Level FlightAware ADS-B
06:18PM 40.8558 -104.7720 298° West 455 524 36,000  Level FlightAware ADS-B
06:19PM 40.8883 -104.8470 300° West 457 526 36,000  Level FlightAware ADS-B
06:19PM 40.9196 -104.9200 300° West 456 525 36,000  Level FlightAware ADS-B
06:20PM 40.9520 -104.9950 300° West 456 525 36,000  Level FlightAware ADS-B
06:20PM 40.9837 -105.0670 300° West 455 524 36,000  Level FlightAware ADS-B
06:21PM 41.0153 -105.1400 300° West 455 524 36,000  Level FlightAware ADS-B
06:21PM 41.0480 -105.2150 300° West 455 524 36,000  Level FlightAware ADS-B
06:22PM 41.0848 -105.3000 300° West 455 524 36,000  Level FlightAware ADS-B
06:23PM 41.1361 -105.4239 300° West 454 522 36,000  Level Salt Lake Center
06:24PM 41.1947 -105.5583 300° West 455 524 36,000  Level Denver Center
06:25PM 41.2644 -105.7222 300° West 456 525 36,000  Level Denver Center
06:26PM 41.3244 -105.8619 300° West 455 524 36,000  Level Denver Center
06:27PM 41.3925 -106.0269 299° West 454 522 36,000  Level Denver Center
06:28PM 41.4517 -106.1678 299° West 455 524 36,000  Level Denver Center
06:29PM 41.5192 -106.3319 299° West 453 521 36,000  Level Denver Center
06:30PM 41.5786 -106.4744 299° West 456 525 36,000  Level Denver Center
06:31PM 41.6469 -106.6425 299° West 451 519 36,000  Level Denver Center
06:32PM 41.7061 -106.7850 299° West 456 525 36,000  Level Denver Center
06:33PM 41.7644 -106.9250 299° West 452 520 36,000  Level Denver Center
06:34PM 41.8300 -107.0889 298° West 450 518 36,000  Level Denver Center
06:35PM 41.8858 -107.2294 298° West 449 517 36,000  Level Denver Center
06:36PM 41.9506 -107.3919 298° West 445 512 36,000  Level Denver Center
06:37PM 42.0075 -107.5325 299° West 447 514 36,000  Level Denver Center
06:38PM 42.0717 -107.6958 298° West 446 513 36,000  Level Denver Center
06:39PM 42.1361 -107.8608 298° West 446 513 36,000  Level Salt Lake Center
06:40PM 42.1931 -108.0036 298° West 449 517 36,000  Level Salt Lake Center
06:41PM 42.2586 -108.1725 298° West 454 522 36,000  Level Salt Lake Center
06:42PM 42.3131 -108.3144 297° West 451 519 36,000  Level Salt Lake Center
06:43PM 42.3758 -108.4814 297° West 448 516 36,000  Level Salt Lake Center
06:44PM 42.4306 -108.6225 298° West 447 514 36,000  Level Salt Lake Center
06:45PM 42.4931 -108.7897 297° West 447 514 36,000  Level Salt Lake Center
06:46PM 42.5478 -108.9328 297° West 446 513 36,000  Level Salt Lake Center
06:47PM 42.6017 -109.0753 297° West 446 513 36,000  Level Salt Lake Center
06:49PM 42.6626 -109.2327 298° West  Level FlightAware Approximate
06:49PM 42.7158 -109.3839 298° West 443 510 36,000  Level Salt Lake Center
06:51PM 42.7783 -109.5489 297° West 442 509 36,000  Level Salt Lake Center
06:52PM 42.8317 -109.6933 297° West 445 512 36,000  Level Salt Lake Center
06:53PM 42.8953 -109.8708 296° West 447 514 36,000  Level Salt Lake Center
06:54PM 42.9478 -110.0169 296° West 448 516 36,000  Level Salt Lake Center
06:55PM 42.9997 -110.1617 296° West 445 512 36,000  Level Salt Lake Center
06:56PM 43.0611 -110.3286 297° West 441 507 36,000  Level Salt Lake Center
06:57PM 43.1125 -110.4750 296° West 444 511 36,000  Level Salt Lake Center
06:58PM 43.1731 -110.6419 296° West 438 504 36,000  Level Salt Lake Center
06:59PM 43.2247 -110.7858 296° West 438 504 36,000  Level Salt Lake Center
07:00PM 43.2833 -110.9578 295° West 444 511 36,000  Level Salt Lake Center
07:01PM 43.3347 -111.1028 296° West 442 509 36,000  Level Salt Lake Center
07:02PM 43.3944 -111.2719 296° West 442 509 36,000  Level Salt Lake Center
07:03PM 43.4450 -111.4181 296° West 441 507 36,000  Level Salt Lake Center
07:09PM 43.7725 -112.3820 296° West 434 499 36,000  Level FlightAware ADS-B
07:10PM 43.7976 -112.4580 295° West 432 497 36,000  Level FlightAware ADS-B
07:10PM 43.8228 -112.5340 295° West 432 497 36,000  Level FlightAware ADS-B
07:11PM 43.8759 -112.6940 295° West 432 497 36,000  Level FlightAware ADS-B
07:12PM 43.9305 -112.8610 294° West 436 502 36,000  Level FlightAware ADS-B
07:13PM 43.9557 -112.9380 294° West 437 503 36,000  Level FlightAware ADS-B
07:14PM 43.9973 -113.0660 294° West 438 504 36,000  Level FlightAware ADS-B
07:14PM 44.0222 -113.1439 294° West 438 504 36,000  Level Salt Lake Center
07:15PM 44.0706 -113.2931 294° West 442 509 36,000  Level Salt Lake Center
07:16PM 44.1264 -113.4658 294° West 440 506 36,000  Level Salt Lake Center
07:17PM 44.1811 -113.6094 298° West 438 504 36,000  Level Salt Lake Center
07:18PM 44.2494 -113.7769 300° West 443 510 36,000  Level Salt Lake Center
07:19PM 44.3064 -113.9214 299° West 445 512 36,000  Level Salt Lake Center
07:20PM 44.3672 -114.0811 298° West 443 510 36,000  Level Salt Lake Center
07:21PM 44.4239 -114.2261 299° West 444 511 36,000  Level Salt Lake Center
07:23PM 44.4919 -114.3953 299° West 447 514 36,000  Level Salt Lake Center
07:24PM 44.5464 -114.5394 298° West 440 506 36,000  Level Salt Lake Center
07:25PM 44.6097 -114.7092 298° West 441 507 36,000  Level Salt Lake Center
07:26PM 44.6650 -114.8539 298° West 440 506 36,000  Level Salt Lake Center
07:27PM 44.7292 -115.0219 298° West 441 507 36,000  Level Salt Lake Center
07:28PM 44.7828 -115.1667 298° West 438 504 36,000  Level Salt Lake Center
07:29PM 44.8456 -115.3342 298° West 435 501 36,000  Level Salt Lake Center
07:30PM 44.8983 -115.4772 298° West 433 498 36,000  Level Salt Lake Center
07:31PM 44.9592 -115.6439 297° West 431 496 36,000  Level Salt Lake Center
07:32PM 45.0119 -115.7867 298° West 430 495 36,000  Level Salt Lake Center
07:33PM 45.0719 -115.9556 297° West 433 498 36,000  Level Salt Lake Center
07:34PM 45.1247 -116.1008 297° West 436 502 36,000  Level Salt Lake Center
07:35PM 45.1858 -116.2722 297° West 438 504 36,000  Level Salt Lake Center
07:36PM 45.2381 -116.4189 297° West 437 503 36,000  Level Salt Lake Center
07:37PM 45.3000 -116.5908 297° West 438 504 36,000  Level Salt Lake Center
07:38PM 45.3531 -116.7403 297° West 442 509 36,000  Level Salt Lake Center
07:39PM 45.4136 -116.9161 296° West 444 511 36,000  Level Salt Lake Center
07:40PM 45.4661 -117.0642 297° West 441 507 36,000  Level Salt Lake Center
07:41PM 45.5172 -117.2108 296° West 435 501 36,000  Level Salt Lake Center
07:42PM 45.5764 -117.3839 296° West 435 501 36,000  Level Salt Lake Center
07:43PM 45.6278 -117.5325 296° West 435 501 36,000  Level Salt Lake Center
07:44PM 45.6869 -117.7067 296° West 437 503 36,000  Level Salt Lake Center
07:45PM 45.7350 -117.8492 296° West 438 504 36,000  Level Salt Lake Center
07:46PM 45.7969 -118.0328 296° West 430 495 36,000  Level Salt Lake Center
07:48PM 45.8628 -118.2289 296° West 429 494 36,000 -60 Level Seattle Center
07:49PM 45.9136 -118.3814 296° West 422 486 35,900  Descending Seattle Center
07:50PM 45.9686 -118.5483 295° West 412 474 36,000  Climbing Seattle Center
07:51PM 46.0169 -118.6958 295° West 410 472 36,000  Level Seattle Center
07:52PM 46.0650 -118.8428 295° West 406 467 36,000  Level Seattle Center
07:58PM 46.3447 -119.7170 295° West 410 472 36,000 -60 Level FlightAware ADS-B
07:58PM 46.3689 -119.7940 295° West 408 470 35,900 -720 Descending FlightAware ADS-B
07:59PM 46.3922 -119.8680 295° West 406 467 35,300 -1,020 Descending FlightAware ADS-B
07:59PM 46.4154 -119.9420 294° West 403 464 34,900 -900 Descending FlightAware ADS-B
08:00PM 46.4391 -120.0190 294° West 400 460 34,400 -960 Descending FlightAware ADS-B
08:00PM 46.4639 -120.0990 294° West 396 456 33,900 -900 Descending FlightAware ADS-B
08:02PM 46.5289 -120.3090 294° West 390 449 32,700 -840 Descending FlightAware ADS-B
08:02PM 46.5526 -120.3870 294° West 390 449 32,300 -600 Descending FlightAware ADS-B
08:03PM 46.5691 -120.4360 296° West 389 448 32,200 -360 Descending FlightAware ADS-B
08:03PM 46.5810 -120.4650 301° West 390 449 32,100 -720 Descending FlightAware ADS-B
08:03PM 46.6108 -120.5300 304° West 378 435 31,700 -1,320 Descending FlightAware ADS-B
08:04PM 46.6413 -120.5930 305° West 373 429 30,800 -2,220 Descending FlightAware ADS-B
08:04PM 46.6716 -120.6570 305° West 378 435 29,500 -2,280 Descending FlightAware ADS-B
08:05PM 46.7017 -120.7200 305° West 374 430 28,500 -1,920 Descending FlightAware ADS-B
08:05PM 46.7361 -120.7920 305° West 369 425 27,400 -1,980 Descending FlightAware ADS-B
08:06PM 46.7898 -120.9060 305° West 368 423 25,500 -2,100 Descending FlightAware ADS-B
08:07PM 46.8190 -120.9680 305° West 370 426 24,400 -1,500 Descending FlightAware ADS-B
08:07PM 46.8475 -121.0280 305° West 353 406 24,000 -600 Descending FlightAware ADS-B
08:08PM 46.8752 -121.0880 304° West 356 410 23,800 -600 Descending FlightAware ADS-B
08:08PM 46.9038 -121.1490 304° West 354 407 23,400 -720 Descending FlightAware ADS-B
08:09PM 46.9298 -121.2040 305° West 352 405 23,100 -780 Descending FlightAware ADS-B
08:09PM 46.9574 -121.2630 304° West 349 402 22,700 -720 Descending FlightAware ADS-B
08:10PM 46.9846 -121.3220 304° West 348 400 22,400 -1,020 Descending FlightAware ADS-B
08:10PM 47.0114 -121.3800 304° West 342 394 21,700 -1,620 Descending FlightAware ADS-B
08:11PM 47.0381 -121.4370 305° West 337 388 20,800 -1,800 Descending FlightAware ADS-B
08:11PM 47.0618 -121.4890 304° West 332 382 20,000 -1,740 Descending FlightAware ADS-B
08:12PM 47.0875 -121.5440 304° West 328 377 19,200 -1,800 Descending FlightAware ADS-B
08:12PM 47.1128 -121.5990 304° West 327 376 18,200 -2,040 Descending FlightAware ADS-B
08:13PM 47.1384 -121.6550 304° West 329 379 17,200 -1,920 Descending FlightAware ADS-B
08:13PM 47.1638 -121.7110 304° West 329 379 16,300 -1,800 Descending FlightAware ADS-B
08:14PM 47.1894 -121.7660 304° West 326 375 15,400 -1,740 Descending FlightAware ADS-B
08:14PM 47.2125 -121.8170 304° West 324 373 14,700 -1,320 Descending FlightAware ADS-B
08:15PM 47.2364 -121.8690 304° West 324 373 14,200 -960 Descending FlightAware ADS-B
08:15PM 47.2604 -121.9220 304° West 326 375 13,800 -960 Descending FlightAware ADS-B
08:16PM 47.2855 -121.9770 304° West 324 373 13,300 -1,020 Descending FlightAware ADS-B
08:16PM 47.3104 -122.0320 304° West 321 369 12,800 -1,020 Descending FlightAware ADS-B
08:17PM 47.3352 -122.0870 304° West 317 365 12,300 -1,020 Descending FlightAware ADS-B
08:17PM 47.3590 -122.1390 304° West 305 351 11,800 -1,200 Descending FlightAware ADS-B
08:17PM 47.3683 -122.1600 303° West 305 351 11,500 -1,920 Descending FlightAware ADS-B
08:17PM 47.3743 -122.1720 306° West 307 353 11,200 -2,220 Descending FlightAware ADS-B
08:18PM 47.3774 -122.1790 303° West 306 352 11,100 -2,040 Descending FlightAware ADS-B
08:18PM 47.3825 -122.1940 297° West 305 351 10,800 -1,500 Descending FlightAware ADS-B
08:18PM 47.3953 -122.2380 293° West 299 344 10,300 -1,140 Descending FlightAware ADS-B
08:18PM 47.4064 -122.2750 294° West 292 336 10,000 -960 Descending FlightAware ADS-B
08:19PM 47.4164 -122.3070 295° West 286 329 9,700 -960 Descending FlightAware ADS-B
08:19PM 47.4242 -122.3330 294° West 281 323 9,500 -1,080 Descending FlightAware ADS-B
08:19PM 47.4320 -122.3590 294° West 277 319 9,200 -1,200 Descending FlightAware ADS-B
08:19PM 47.4376 -122.3760 296° West 277 319 9,000 -1,320 Descending FlightAware ADS-B
08:19PM 47.4396 -122.3820 296° West 279 321 8,900 -1,740 Descending FlightAware ADS-B
08:19PM 47.4422 -122.3870 308° West 282 325 8,800 -2,040 Descending FlightAware ADS-B
08:20PM 47.4451 -122.3920 311° West 285 328 8,700 -1,740 Descending FlightAware ADS-B
08:20PM 47.4480 -122.3960 317° Northwest 287 330 8,600 -900 Descending FlightAware ADS-B
08:20PM 47.4512 -122.4000 320° Northwest 289 333 8,600 -1,020 Level FlightAware ADS-B
08:20PM 47.4553 -122.4040 327° Northwest 292 336 8,500 -1,680 Descending FlightAware ADS-B
08:20PM 47.4643 -122.4100 336° Northwest 292 336 8,300 -1,320 Descending FlightAware ADS-B
08:20PM 47.4827 -122.4230 334° Northwest 290 334 8,000 -1,200 Descending FlightAware ADS-B
08:20PM 47.5006 -122.4360 334° Northwest 288 331 7,700 -1,440 Descending FlightAware ADS-B
08:21PM 47.5145 -122.4460 334° Northwest 285 328 7,400 -1,800 Descending FlightAware ADS-B
08:21PM 47.5327 -122.4590 334° Northwest 285 328 6,900 -1,980 Descending FlightAware ADS-B
08:21PM 47.5476 -122.4700 334° Northwest 281 323 6,500 -1,800 Descending FlightAware ADS-B
08:21PM 47.5639 -122.4820 334° Northwest 278 320 6,100 -2,040 Descending FlightAware ADS-B
08:21PM 47.5784 -122.4930 333° Northwest 274 315 5,600 -2,040 Descending FlightAware ADS-B
08:22PM 47.5950 -122.5050 334° Northwest 266 306 5,200 -1,800 Descending FlightAware ADS-B
08:22PM 47.6118 -122.5180 332° Northwest 259 298 4,700 -1,920 Descending FlightAware ADS-B
08:22PM 47.6257 -122.5290 332° Northwest 255 293 4,300 -2,160 Descending FlightAware ADS-B
08:23PM 47.6472 -122.5450 333° Northwest 252 290 3,500 -2,160 Descending FlightAware ADS-B
08:23PM 47.6551 -122.5500 337° Northwest 250 288 3,300 -1,680 Descending FlightAware ADS-B
08:23PM 47.6594 -122.5520 343° North 250 288 3,200 -2,280 Descending FlightAware ADS-B
08:23PM 47.6640 -122.5540 344° North 251 289 3,000 -1,500 Descending FlightAware ADS-B
08:23PM 47.6955 -122.5540 360° North 251 289 2,400 -1,080 Descending FlightAware ADS-B
08:24PM 47.7149 -122.5460 16° North 233 268 2,200 -540 Descending FlightAware ADS-B
08:24PM 47.7253 -122.5290 48° Northeast 216 249 2,100 -540 Descending FlightAware ADS-B
08:24PM 47.7301 -122.5170 59° Northeast 207 238 2,000 -480 Descending FlightAware ADS-B
08:24PM 47.7316 -122.5130 61° Northeast 203 234 2,000 -900 Level FlightAware ADS-B
08:24PM 47.7326 -122.5090 70° East 199 229 1,900 -780 Descending FlightAware ADS-B
08:24PM 47.7334 -122.5020 80° East 192 221 1,900 660 Level FlightAware ADS-B
08:24PM 47.7333 -122.4970 92° East 187 215 2,000 660 Climbing FlightAware ADS-B
08:24PM 47.7323 -122.4910 104° East 184 212 2,000  Level FlightAware ADS-B
08:24PM 47.7313 -122.4870 110° East 181 208 2,000  Level FlightAware ADS-B
08:24PM 47.7296 -122.4810 113° Southeast 179 206 2,000  Level FlightAware ADS-B
08:25PM 47.7282 -122.4780 125° Southeast 178 205 2,000  Level FlightAware ADS-B
08:25PM 47.7247 -122.4720 131° Southeast 175 201 2,000  Level FlightAware ADS-B
08:25PM 47.7097 -122.4550 143° Southeast 174 200 2,000  Level FlightAware ADS-B
08:25PM 47.6989 -122.4450 148° Southeast 173 199 2,000  Level FlightAware ADS-B
08:26PM 47.6807 -122.4300 151° Southeast 174 200 2,000  Level FlightAware ADS-B
08:26PM 47.6670 -122.4190 152° Southeast 170 196 2,000  Level FlightAware ADS-B
08:26PM 47.6597 -122.4130 151° Southeast 168 193 2,000  Level FlightAware ADS-B
08:26PM 47.6502 -122.4050 150° Southeast 174 200 2,000  Level FlightAware ADS-B
08:27PM 47.6451 -122.4000 147° Southeast 169 194 2,000 -360 Level FlightAware ADS-B
08:27PM 47.6380 -122.3940 150° Southeast 155 178 1,900 -300 Descending FlightAware ADS-B
08:27PM 47.6322 -122.3890 150° Southeast 152 175 1,900 -540 Level FlightAware ADS-B
08:27PM 47.6235 -122.3820 152° Southeast 143 165 1,700 -900 Descending FlightAware ADS-B
08:28PM 47.6086 -122.3690 150° Southeast 136 157 1,300 -780 Descending FlightAware ADS-B
08:28PM 47.6021 -122.3640 153° Southeast 138 159 1,200 -660 Descending FlightAware ADS-B
08:28PM 47.5877 -122.3510 149° Southeast 138 159 900 -600 Descending FlightAware ADS-B
08:29PM 47.5481 -122.3169 149° Southeast 144 166 300 -360 Descending Seattle Center
08:30PM 47.5133 -122.2878 150° Southeast 141 162 100 -240 Descending Seattle Center